Time;durP1;ratioP1;P1;durP2;ratioP2;P2;SDS_P1;SDS_P2;PMS_P1;PMS_P2;Temp;Humidity;BMP_temperature;BMP_pressure;BME280_temperature;BME280_humidity;BME280_pressure;Samples;Min_cycle;Max_cycle;Signal;HPM_P1;HPM_P2
2022/05/07 00:03:16;;;;;;;11.80;7.50;;;13.00;99.90;;;;;;12374519;28;20039;-39
2022/05/07 00:09:18;;;;;;;10.93;6.95;;;13.00;99.90;;;;;;12379695;28;20050;-37
2022/05/07 00:15:20;;;;;;;10.95;6.90;;;13.10;99.90;;;;;;12374667;28;20765;-38
2022/05/07 00:21:27;;;;;;;10.52;6.88;;;13.20;99.90;;;;;;12378469;28;20047;-39
2022/05/07 00:27:29;;;;;;;10.50;7.13;;;13.20;99.90;;;;;;12377212;28;20092;-37
2022/05/07 00:33:31;;;;;;;11.43;6.30;;;13.10;99.90;;;;;;12377830;28;20184;-37
2022/05/07 00:39:33;;;;;;;9.05;6.10;;;13.10;99.90;;;;;;12378882;28;20418;-38
2022/05/07 00:45:36;;;;;;;10.35;6.40;;;13.10;99.90;;;;;;12377936;28;20108;-37
2022/05/07 00:51:38;;;;;;;10.63;6.45;;;13.00;99.90;;;;;;12383582;28;20475;-37
2022/05/07 00:57:40;;;;;;;10.02;5.85;;;13.00;99.90;;;;;;12388275;28;20471;-39
2022/05/07 01:03:44;;;;;;;8.73;6.43;;;13.00;99.90;;;;;;12384697;28;20050;-37
2022/05/07 01:09:47;;;;;;;10.48;6.70;;;13.10;99.90;;;;;;12383215;28;20800;-38
2022/05/07 01:15:55;;;;;;;9.38;6.85;;;13.00;99.90;;;;;;12381753;28;20054;-38
2022/05/07 01:21:57;;;;;;;10.25;6.63;;;12.80;99.90;;;;;;12383031;28;20100;-37
2022/05/07 01:27:59;;;;;;;13.55;8.13;;;12.70;99.90;;;;;;12386321;28;20053;-38
2022/05/07 01:34:01;;;;;;;10.20;7.95;;;12.30;99.90;;;;;;12374108;28;20753;-39
2022/05/07 01:40:04;;;;;;;13.55;8.35;;;11.90;99.90;;;;;;12384580;28;20057;-36
2022/05/07 01:48:09;;;;;;;13.52;8.35;;;11.80;99.90;;;;;;12385807;28;20529;-37
2022/05/07 01:52:28;;;;;;;14.65;7.95;;;11.60;99.90;;;;;;12382506;28;20092;-38
2022/05/07 01:58:30;;;;;;;11.10;7.68;;;11.80;99.90;;;;;;12381309;28;20058;-38
2022/05/07 02:04:32;;;;;;;13.63;8.07;;;11.90;99.90;;;;;;12380570;28;20062;-38
2022/05/07 02:10:34;;;;;;;11.70;8.18;;;11.90;99.90;;;;;;12380095;28;20058;-37
2022/05/07 02:16:36;;;;;;;12.90;9.25;;;11.90;99.90;;;;;;12381255;28;20537;-37
2022/05/07 02:22:39;;;;;;;12.90;8.38;;;12.00;99.90;;;;;;12378106;28;20054;-39
2022/05/07 02:28:41;;;;;;;14.20;9.15;;;12.10;99.90;;;;;;12378581;28;20058;-39
2022/05/07 02:34:43;;;;;;;13.68;9.05;;;12.00;99.90;;;;;;12377356;28;20096;-39
2022/05/07 02:47:10;;;;;;;13.82;9.23;;;12.00;99.90;;;;;;12374440;28;20586;-38
2022/05/07 02:53:12;;;;;;;13.55;9.93;;;12.00;99.90;;;;;;12375307;28;20137;-37
2022/05/07 02:59:14;;;;;;;13.90;10.05;;;11.80;99.90;;;;;;12377389;28;20126;-38
2022/05/07 03:05:16;;;;;;;12.77;9.45;;;11.80;99.90;;;;;;12377206;28;20626;-37
2022/05/07 03:11:18;;;;;;;16.60;10.23;;;11.80;99.90;;;;;;12376632;28;20145;-38
2022/05/07 03:17:20;;;;;;;12.95;10.10;;;11.80;99.90;;;;;;12376300;28;20090;-37
2022/05/07 03:23:26;;;;;;;11.95;9.80;;;11.70;99.90;;;;;;12376728;28;20054;-39
2022/05/07 03:29:28;;;;;;;14.63;9.93;;;11.70;99.90;;;;;;12368959;28;20054;-38
2022/05/07 03:35:31;;;;;;;13.57;10.02;;;11.80;99.90;;;;;;12377027;28;20491;-37
2022/05/07 03:41:33;;;;;;;13.38;9.93;;;11.80;99.90;;;;;;12377285;28;20051;-37
2022/05/07 03:47:35;;;;;;;16.35;10.35;;;11.80;99.90;;;;;;12379698;28;20487;-37
2022/05/07 03:53:38;;;;;;;14.05;9.45;;;11.70;99.90;;;;;;12360892;28;20085;-39
2022/05/07 03:59:42;;;;;;;11.95;9.27;;;11.50;99.90;;;;;;12376118;28;20066;-37
2022/05/07 04:05:44;;;;;;;11.07;8.97;;;11.30;99.90;;;;;;12375808;28;20054;-37
2022/05/07 04:11:47;;;;;;;13.07;10.07;;;11.20;99.90;;;;;;12371412;28;20499;-39
2022/05/07 04:17:50;;;;;;;15.98;10.63;;;11.30;99.90;;;;;;12376320;28;20099;-38
2022/05/07 04:23:52;;;;;;;17.42;11.25;;;10.90;99.90;;;;;;12382266;28;20077;-38
2022/05/07 04:29:57;;;;;;;19.88;11.50;;;10.80;99.90;;;;;;12383097;28;20047;-37
2022/05/07 04:36:00;;;;;;;15.85;10.65;;;11.10;99.90;;;;;;12384501;28;20049;-37
2022/05/07 04:42:03;;;;;;;12.45;9.85;;;11.30;99.90;;;;;;12380387;28;20403;-38
2022/05/07 04:48:06;;;;;;;14.43;10.32;;;11.40;99.90;;;;;;12377411;28;20042;-39
2022/05/07 04:54:08;;;;;;;16.33;11.60;;;11.50;99.90;;;;;;12380846;28;20058;-37
2022/05/07 05:00:15;;;;;;;16.45;10.55;;;11.30;99.90;;;;;;12379719;28;20050;-38
2022/05/07 05:06:18;;;;;;;17.40;11.27;;;11.60;99.90;;;;;;12380567;28;20074;-39
2022/05/07 05:12:20;;;;;;;18.25;12.60;;;11.60;99.90;;;;;;12380514;28;20054;-37
2022/05/07 05:18:22;;;;;;;19.35;11.63;;;11.70;99.90;;;;;;12381040;28;20104;-38
2022/05/07 05:24:24;;;;;;;18.02;12.50;;;11.80;99.90;;;;;;12378757;28;20073;-38
2022/05/07 05:30:26;;;;;;;16.83;12.50;;;11.90;99.90;;;;;;12379574;28;20137;-37
2022/05/07 05:36:30;;;;;;;18.67;12.60;;;12.00;99.90;;;;;;12382725;28;20050;-39
2022/05/07 05:42:32;;;;;;;18.83;12.35;;;12.10;99.90;;;;;;12381241;28;20137;-37
2022/05/07 05:48:35;;;;;;;15.38;11.98;;;12.20;99.90;;;;;;12379415;28;20085;-39
2022/05/07 05:54:36;;;;;;;16.20;11.63;;;12.20;99.90;;;;;;12377657;28;20065;-39
2022/05/07 06:00:38;;;;;;;15.68;12.55;;;12.50;99.90;;;;;;12379558;28;20058;-39
2022/05/07 06:06:41;;;;;;;16.67;12.63;;;12.80;99.90;;;;;;12378689;28;20093;-39
2022/05/07 06:12:44;;;;;;;15.35;12.65;;;12.90;99.90;;;;;;12374023;28;20081;-37
2022/05/07 06:18:46;;;;;;;17.70;12.63;;;12.80;99.90;;;;;;12376453;28;20490;-37
2022/05/07 06:31:11;;;;;;;19.73;12.45;;;13.00;99.90;;;;;;12374518;28;20471;-38
2022/05/07 06:37:14;;;;;;;15.88;12.35;;;13.20;99.90;;;;;;12365903;28;20445;-40
2022/05/07 06:43:16;;;;;;;18.55;13.20;;;13.30;99.90;;;;;;12362657;28;20039;-42
2022/05/07 06:49:18;;;;;;;17.00;12.65;;;13.50;99.90;;;;;;12364528;28;20053;-39
2022/05/07 06:55:20;;;;;;;17.45;13.57;;;13.60;99.90;;;;;;12362735;28;20050;-40
2022/05/07 07:01:22;;;;;;;18.58;13.95;;;13.60;99.90;;;;;;12364524;28;20046;-39
2022/05/07 07:07:25;;;;;;;20.20;13.20;;;13.70;99.90;;;;;;12361340;28;20064;-40
2022/05/07 07:13:27;;;;;;;20.42;13.10;;;13.70;99.90;;;;;;12362312;28;20455;-37
2022/05/07 07:19:31;;;;;;;17.08;12.52;;;13.80;99.90;;;;;;12362107;28;20084;-39
2022/05/07 07:25:33;;;;;;;16.83;13.25;;;13.90;99.90;;;;;;12370261;28;20054;-39
2022/05/07 07:31:35;;;;;;;17.65;12.57;;;14.10;99.90;;;;;;12378384;28;20050;-39
2022/05/07 07:37:37;;;;;;;19.10;12.23;;;14.20;99.90;;;;;;12374406;28;20426;-40
2022/05/07 07:43:40;;;;;;;17.77;13.68;;;14.20;99.90;;;;;;12376491;28;20131;-38
2022/05/07 07:49:43;;;;;;;17.35;12.43;;;14.40;99.90;;;;;;12355703;28;20050;-40
2022/05/07 07:55:45;;;;;;;20.10;13.67;;;14.40;99.90;;;;;;12375720;28;20141;-40
2022/05/07 08:01:47;;;;;;;19.35;12.57;;;14.60;99.90;;;;;;12375019;28;20130;-38
2022/05/07 08:14:14;;;;;;;19.35;12.45;;;14.70;99.90;;;;;;12375176;28;20050;-38
2022/05/07 08:20:16;;;;;;;17.80;13.02;;;14.90;99.90;;;;;;12374869;28;20404;-38
2022/05/07 08:26:18;;;;;;;22.67;14.25;;;15.20;99.90;;;;;;12375371;28;20073;-38
2022/05/07 08:32:20;;;;;;;23.15;13.35;;;15.50;99.90;;;;;;12376216;28;20544;-39
2022/05/07 08:38:22;;;;;;;16.95;11.90;;;15.70;99.90;;;;;;12376124;28;20407;-40
2022/05/07 08:44:24;;;;;;;17.38;10.90;;;16.00;99.90;;;;;;12372570;28;20137;-40
2022/05/07 08:50:26;;;;;;;17.73;11.50;;;16.20;99.90;;;;;;12372432;28;20054;-38
2022/05/07 08:56:28;;;;;;;31.85;14.15;;;16.50;99.90;;;;;;12375342;28;20560;-41
2022/05/07 09:02:41;;;;;;;16.42;9.38;;;16.80;99.90;;;;;;12372871;28;20328;-39
2022/05/07 09:08:49;;;;;;;14.23;9.10;;;17.30;99.90;;;;;;12382927;28;20058;-40
2022/05/07 09:14:53;;;;;;;14.32;9.57;;;17.40;99.90;;;;;;12380509;28;20042;-40
2022/05/07 09:21:24;;;;;;;14.48;8.80;;;17.30;99.90;;;;;;12381226;28;20581;-41
2022/05/07 09:27:26;;;;;;;15.27;9.20;;;17.80;99.90;;;;;;12382057;28;20047;-39
2022/05/07 09:33:33;;;;;;;13.10;8.20;;;18.30;99.90;;;;;;12377231;28;20047;-39
2022/05/07 09:39:35;;;;;;;12.15;8.75;;;18.50;99.90;;;;;;12382585;28;20058;-40
2022/05/07 09:45:39;;;;;;;14.43;9.68;;;18.70;99.90;;;;;;12377349;28;20719;-41
2022/05/07 09:51:42;;;;;;;16.83;11.43;;;18.70;99.90;;;;;;12377235;28;20069;-41
2022/05/07 09:57:44;;;;;;;14.33;10.70;;;18.60;99.90;;;;;;12379504;28;20081;-42
2022/05/07 10:03:58;;;;;;;19.70;12.00;;;18.70;99.90;;;;;;12378229;28;20046;-39
2022/05/07 10:10:25;;;;;;;18.95;12.82;;;18.50;99.90;;;;;;12375414;28;20054;-41
2022/05/07 10:16:31;;;;;;;16.33;11.35;;;18.60;99.90;;;;;;12369946;28;20137;-40
2022/05/07 10:22:33;;;;;;;14.60;10.43;;;18.60;99.90;;;;;;12372917;28;20093;-39
2022/05/07 10:28:40;;;;;;;14.15;10.75;;;18.90;99.90;;;;;;12375572;28;20047;-39
2022/05/07 10:34:51;;;;;;;12.18;9.73;;;18.80;99.90;;;;;;12372853;28;20127;-41
2022/05/07 10:40:58;;;;;;;14.95;9.85;;;18.90;99.90;;;;;;12377234;28;20050;-41
2022/05/07 10:47:14;;;;;;;12.88;9.07;;;19.10;99.90;;;;;;12378173;28;20100;-39
2022/05/07 10:53:16;;;;;;;17.08;8.82;;;19.30;99.90;;;;;;12374101;28;20070;-39
2022/05/07 10:59:21;;;;;;;10.30;6.70;;;19.90;99.90;;;;;;12374914;28;20053;-42
2022/05/07 11:05:34;;;;;;;13.57;9.10;;;20.50;99.90;;;;;;12372747;28;20046;-41
2022/05/07 11:11:46;;;;;;;13.32;8.88;;;20.20;99.90;;;;;;12372863;28;20133;-38
2022/05/07 11:17:48;;;;;;;16.80;8.70;;;20.20;99.90;;;;;;12376257;28;20457;-39
2022/05/07 11:24:01;;;;;;;13.20;8.90;;;20.70;99.90;;;;;;12376729;28;20495;-43
2022/05/07 11:30:04;;;;;;;12.90;9.70;;;20.80;99.90;;;;;;12373886;28;20121;-39
2022/05/07 11:36:08;;;;;;;13.38;8.60;;;21.00;99.90;;;;;;12366120;28;20038;-40
2022/05/07 11:42:10;;;;;;;13.63;8.60;;;21.40;99.90;;;;;;12375498;28;20082;-40
2022/05/07 11:48:17;;;;;;;12.20;7.60;;;21.90;99.90;;;;;;12376108;28;20054;-42
2022/05/07 11:54:19;;;;;;;13.02;8.18;;;21.80;99.90;;;;;;12357559;28;20073;-42
2022/05/07 12:00:26;;;;;;;11.25;7.57;;;21.80;99.90;;;;;;12374811;28;20050;-40
2022/05/07 12:06:30;;;;;;;12.82;7.75;;;21.40;99.90;;;;;;12374590;28;20100;-41
2022/05/07 12:12:32;;;;;;;12.95;7.90;;;20.80;99.90;;;;;;12376313;28;20529;-41
2022/05/07 12:18:35;;;;;;;10.85;7.25;;;20.10;99.90;;;;;;12375449;28;20054;-39
2022/05/07 12:30:58;;;;;;;10.55;7.45;;;19.70;99.90;;;;;;12375317;28;20470;-39
2022/05/07 12:37:00;;;;;;;10.85;7.85;;;19.70;99.90;;;;;;12373355;28;20137;-39
2022/05/07 12:43:02;;;;;;;13.10;8.20;;;20.20;99.90;;;;;;12378342;28;20577;-39
2022/05/07 12:49:04;;;;;;;12.65;7.13;;;20.60;99.90;;;;;;12377440;28;20760;-41
2022/05/07 12:55:06;;;;;;;12.57;6.90;;;20.90;99.90;;;;;;12372238;28;20052;-39
2022/05/07 13:01:11;;;;;;;12.55;7.63;;;21.20;99.90;;;;;;12380275;28;20181;-42
2022/05/07 13:07:13;;;;;;;10.05;6.28;;;21.50;99.90;;;;;;12379678;28;20080;-41
2022/05/07 13:13:18;;;;;;;13.05;7.32;;;21.20;99.90;;;;;;12380903;28;20077;-40
2022/05/07 13:19:20;;;;;;;12.90;7.22;;;20.50;99.90;;;;;;12379781;28;20351;-40
2022/05/07 13:25:23;;;;;;;9.35;5.70;;;19.80;99.90;;;;;;12381074;28;20101;-39
2022/05/07 13:31:25;;;;;;;17.23;7.95;;;19.40;99.90;;;;;;12381757;28;20050;-41
2022/05/07 13:37:29;;;;;;;18.67;8.35;;;18.60;99.90;;;;;;12384872;28;20625;-40
2022/05/07 13:43:31;;;;;;;12.65;7.93;;;17.50;99.90;;;;;;12382619;28;20080;-40
2022/05/07 13:49:34;;;;;;;18.52;9.95;;;17.00;99.90;;;;;;12380632;28;20046;-40
2022/05/07 13:55:36;;;;;;;15.07;10.27;;;16.80;99.90;;;;;;12380516;28;20105;-40
2022/05/07 14:01:38;;;;;;;17.02;13.27;;;16.60;99.90;;;;;;12381012;28;20100;-39
2022/05/07 14:07:40;;;;;;;18.33;11.98;;;16.70;99.90;;;;;;12379517;28;20074;-39
2022/05/07 14:13:42;;;;;;;18.02;12.35;;;16.90;99.90;;;;;;12378362;28;20043;-41
2022/05/07 14:19:44;;;;;;;16.45;10.18;;;17.30;99.90;;;;;;12383088;28;20058;-40
2022/05/07 14:25:46;;;;;;;14.93;10.55;;;17.50;99.90;;;;;;12384098;28;20770;-39
2022/05/07 14:31:48;;;;;;;14.02;8.88;;;17.90;99.90;;;;;;12382226;28;20049;-39
2022/05/07 14:37:50;;;;;;;15.68;9.85;;;18.00;99.90;;;;;;12383462;28;20058;-40
2022/05/07 14:43:52;;;;;;;13.85;7.88;;;18.10;99.90;;;;;;12383678;28;20498;-41
2022/05/07 14:49:55;;;;;;;13.57;7.63;;;17.90;99.90;;;;;;12383639;28;20137;-39
2022/05/07 14:55:57;;;;;;;9.50;5.47;;;17.50;99.90;;;;;;12383508;28;20645;-39
2022/05/07 15:02:00;;;;;;;8.25;3.35;;;17.10;99.90;;;;;;12383065;28;20185;-39
2022/05/07 15:14:24;;;;;;;4.63;2.30;;;17.20;99.90;;;;;;12384893;28;20049;-39
2022/05/07 15:20:27;;;;;;;4.78;2.10;;;17.50;99.90;;;;;;12386787;28;20105;-41
2022/05/07 15:26:30;;;;;;;3.22;1.40;;;17.90;99.90;;;;;;12391411;28;20085;-40
2022/05/07 15:38:56;;;;;;;7.43;1.40;;;18.30;99.90;;;;;;12389332;28;20085;-40
2022/05/07 15:45:07;;;;;;;2.92;1.63;;;18.30;99.90;;;;;;12386982;28;20054;-39
2022/05/07 15:51:15;;;;;;;2.75;1.65;;;18.10;99.90;;;;;;12386102;28;20144;-39
2022/05/07 15:57:19;;;;;;;4.47;1.95;;;18.10;99.90;;;;;;12389635;28;20066;-40
2022/05/07 16:03:22;;;;;;;10.10;6.35;;;18.00;99.90;;;;;;12383469;28;20078;-38
2022/05/07 16:09:25;;;;;;;9.88;7.28;;;17.80;99.90;;;;;;12380782;28;20431;-39
2022/05/07 16:15:31;;;;;;;9.60;6.03;;;17.70;99.90;;;;;;12385067;28;20062;-41
2022/05/07 16:21:34;;;;;;;12.00;7.03;;;17.90;99.90;;;;;;12397742;28;20046;-39
2022/05/07 16:27:36;;;;;;;9.18;5.97;;;17.60;99.90;;;;;;12399152;28;20443;-41
2022/05/07 16:33:38;;;;;;;13.20;6.60;;;16.90;99.90;;;;;;12396570;28;20089;-39
2022/05/07 16:39:45;;;;;;;9.60;7.35;;;16.40;99.90;;;;;;12398070;28;20054;-40
2022/05/07 16:45:48;;;;;;;13.40;8.27;;;16.10;99.90;;;;;;12394601;28;20104;-41
2022/05/07 16:51:51;;;;;;;11.35;7.60;;;15.90;99.90;;;;;;12396245;28;20070;-41
2022/05/07 16:57:53;;;;;;;12.73;8.85;;;15.90;99.90;;;;;;12398573;28;20054;-39
2022/05/07 17:03:56;;;;;;;18.23;9.77;;;15.90;99.90;;;;;;12386324;28;20526;-40
2022/05/07 17:09:59;;;;;;;13.07;8.88;;;15.50;99.90;;;;;;12397431;28;20621;-40
2022/05/07 17:16:02;;;;;;;13.00;8.60;;;15.60;99.90;;;;;;12397741;28;20446;-39
2022/05/07 17:22:07;;;;;;;14.30;8.55;;;15.50;99.90;;;;;;12393972;28;20057;-41
2022/05/07 17:28:09;;;;;;;12.93;8.15;;;15.50;99.90;;;;;;12391955;28;20784;-41
2022/05/07 17:34:11;;;;;;;13.75;7.35;;;15.60;99.90;;;;;;12388722;28;20140;-39
2022/05/07 17:40:14;;;;;;;13.15;8.48;;;15.40;99.90;;;;;;12389916;28;20054;-41
2022/05/07 17:46:16;;;;;;;12.35;7.85;;;15.70;99.90;;;;;;12391529;28;20061;-42
2022/05/07 17:52:20;;;;;;;10.07;7.40;;;16.20;99.90;;;;;;12390022;28;20097;-39
2022/05/07 17:58:22;;;;;;;13.40;7.67;;;16.10;99.90;;;;;;12387739;28;20058;-39
2022/05/07 18:04:24;;;;;;;12.30;8.13;;;15.90;99.90;;;;;;12388813;28;20092;-40
2022/05/07 18:10:27;;;;;;;14.50;8.18;;;15.70;99.90;;;;;;12384932;28;20072;-40
2022/05/07 18:16:29;;;;;;;13.30;8.35;;;15.50;99.90;;;;;;12387268;28;20621;-41
2022/05/07 18:22:31;;;;;;;11.40;8.52;;;15.50;99.90;;;;;;12387847;28;20113;-40
2022/05/07 18:28:34;;;;;;;12.52;8.40;;;15.50;99.90;;;;;;12387958;28;20061;-39
2022/05/07 18:34:36;;;;;;;13.38;8.98;;;15.30;99.90;;;;;;12386780;28;20546;-41
2022/05/07 18:46:59;;;;;;;14.73;9.77;;;15.00;99.90;;;;;;12384454;28;20097;-40
2022/05/07 18:53:02;;;;;;;16.58;10.25;;;14.90;99.90;;;;;;12382685;28;20050;-40
2022/05/07 18:59:04;;;;;;;14.82;10.20;;;14.80;99.90;;;;;;12386539;28;20394;-40
2022/05/07 19:05:07;;;;;;;12.90;9.25;;;14.70;99.90;;;;;;12399758;28;20104;-39
2022/05/07 19:11:09;;;;;;;12.10;8.82;;;14.80;99.90;;;;;;12384353;28;20055;-41
2022/05/07 19:17:11;;;;;;;14.43;9.43;;;14.70;99.90;;;;;;12381057;28;20089;-40
2022/05/07 19:23:13;;;;;;;13.23;9.02;;;14.70;99.90;;;;;;12373630;28;20046;-39
2022/05/07 19:29:15;;;;;;;15.48;9.02;;;14.80;99.90;;;;;;12379725;28;20046;-41
2022/05/07 19:35:18;;;;;;;15.05;9.35;;;14.70;99.90;;;;;;12377596;28;20136;-41
2022/05/07 19:41:21;;;;;;;14.25;9.88;;;14.60;99.90;;;;;;12377568;28;20066;-39
2022/05/07 19:47:27;;;;;;;13.57;8.75;;;14.60;99.90;;;;;;12380758;28;20054;-39
2022/05/07 19:53:30;;;;;;;14.43;9.25;;;14.70;99.90;;;;;;12379613;28;20738;-39
2022/05/07 19:59:32;;;;;;;18.50;9.43;;;14.80;99.90;;;;;;12378672;28;20046;-42
2022/05/07 20:05:34;;;;;;;13.90;9.35;;;14.80;99.90;;;;;;12380676;28;20045;-41
2022/05/07 20:11:36;;;;;;;14.57;9.90;;;14.60;99.90;;;;;;12377908;28;20153;-39
2022/05/07 20:17:39;;;;;;;12.35;8.52;;;14.40;99.90;;;;;;12377834;28;20085;-41
2022/05/07 20:23:42;;;;;;;13.00;7.30;;;14.40;99.90;;;;;;12376240;28;20058;-39
2022/05/07 20:29:45;;;;;;;9.50;6.10;;;14.10;99.90;;;;;;12376442;28;20435;-42
2022/05/07 20:35:47;;;;;;;8.85;5.55;;;14.00;99.90;;;;;;12376290;28;20556;-39
2022/05/07 20:41:50;;;;;;;10.38;5.40;;;13.80;99.90;;;;;;12375531;28;20540;-39
2022/05/07 20:47:52;;;;;;;11.37;5.30;;;13.60;99.90;;;;;;12380927;28;20085;-41
2022/05/07 20:53:56;;;;;;;13.43;5.63;;;13.60;99.90;;;;;;12378407;28;20046;-39
2022/05/07 20:59:58;;;;;;;8.23;4.80;;;13.60;99.90;;;;;;12376923;28;20096;-39
2022/05/07 21:06:01;;;;;;;8.45;4.63;;;13.60;99.90;;;;;;12382978;28;20057;-39
2022/05/07 21:12:03;;;;;;;9.85;5.15;;;13.80;99.90;;;;;;12382823;28;20623;-39
2022/05/07 21:18:07;;;;;;;6.68;4.10;;;13.80;99.90;;;;;;12385272;28;20096;-41
2022/05/07 21:24:09;;;;;;;9.52;4.40;;;13.50;99.90;;;;;;12358154;28;20096;-39
2022/05/07 21:30:11;;;;;;;8.63;4.40;;;13.40;99.90;;;;;;12383232;28;20131;-40
2022/05/07 21:36:13;;;;;;;6.72;3.85;;;13.30;99.90;;;;;;12385915;28;20129;-39
2022/05/07 21:42:20;;;;;;;11.52;3.97;;;13.10;99.90;;;;;;12384478;28;20042;-39
2022/05/07 21:48:23;;;;;;;8.52;4.00;;;13.10;99.90;;;;;;12381953;28;20046;-40
2022/05/07 21:54:25;;;;;;;7.43;3.83;;;13.00;99.90;;;;;;12382498;28;20517;-41
2022/05/07 22:00:27;;;;;;;8.10;4.55;;;12.90;99.90;;;;;;12385655;28;20560;-41
2022/05/07 22:06:31;;;;;;;10.95;5.25;;;12.80;99.90;;;;;;12384554;28;20082;-39
2022/05/07 22:12:33;;;;;;;13.20;6.43;;;12.60;99.90;;;;;;12381384;28;20537;-40
2022/05/07 22:18:36;;;;;;;12.07;5.90;;;12.40;99.90;;;;;;12384749;28;20129;-41
2022/05/07 22:24:39;;;;;;;11.18;6.40;;;12.40;99.90;;;;;;12383424;28;20491;-39
2022/05/07 22:30:41;;;;;;;11.23;7.27;;;12.40;99.90;;;;;;12368936;28;20050;-41
2022/05/07 22:36:47;;;;;;;16.05;8.43;;;12.30;99.90;;;;;;12378338;28;20050;-39
2022/05/07 22:42:49;;;;;;;17.75;9.35;;;12.10;99.90;;;;;;12381236;28;20638;-39
2022/05/07 22:48:51;;;;;;;16.95;10.23;;;11.80;99.90;;;;;;12380222;28;20598;-39
2022/05/07 22:54:53;;;;;;;14.90;10.00;;;11.70;99.90;;;;;;12377244;28;20077;-40
2022/05/07 23:00:55;;;;;;;23.70;10.57;;;11.70;99.90;;;;;;12378193;28;20050;-40
2022/05/07 23:06:57;;;;;;;17.85;10.40;;;11.60;99.90;;;;;;12382746;28;20133;-39
2022/05/07 23:13:00;;;;;;;20.40;11.25;;;11.70;99.90;;;;;;12378320;28;20112;-40
2022/05/07 23:19:02;;;;;;;21.38;12.60;;;11.40;99.90;;;;;;12379482;28;20057;-41
2022/05/07 23:25:24;;;;;;;23.10;12.75;;;11.50;99.90;;;;;;12373240;28;20042;-39
2022/05/07 23:31:26;;;;;;;21.23;12.45;;;11.30;99.90;;;;;;12377838;28;20209;-39
2022/05/07 23:37:28;;;;;;;27.52;14.65;;;11.10;99.90;;;;;;12376086;28;20105;-39
2022/05/07 23:43:30;;;;;;;22.63;12.50;;;10.90;99.90;;;;;;12379759;28;20138;-39
2022/05/07 23:49:32;;;;;;;22.08;12.43;;;11.00;99.90;;;;;;12376752;28;20145;-39
2022/05/07 23:55:33;;;;;;;22.30;11.85;;;11.00;99.90;;;;;;12378679;28;20074;-39
